createdAt,value
2024-01-17T00:00:45.494Z,-3.17
2024-01-17T00:03:12.424Z,-4.10
2024-01-17T00:05:39.193Z,-4.23
2024-01-17T00:08:06.225Z,-2.10
2024-01-17T00:10:32.897Z,-1.80
2024-01-17T00:13:00.847Z,-1.71
2024-01-17T00:15:27.436Z,-1.71
2024-01-17T00:17:54.237Z,-1.72
2024-01-17T00:20:20.865Z,-1.72
2024-01-17T00:22:47.545Z,-1.69
2024-01-17T00:25:14.172Z,-1.65
2024-01-17T00:27:40.882Z,-1.66
2024-01-17T00:30:10.011Z,-1.68
2024-01-17T00:32:37.070Z,-1.86
2024-01-17T00:35:04.158Z,-2.04
2024-01-17T00:37:30.917Z,-1.75
2024-01-17T00:39:57.618Z,-1.70
2024-01-17T00:42:25.074Z,-1.70
2024-01-17T00:44:51.805Z,-1.64
2024-01-17T00:47:19.809Z,-1.65
2024-01-17T00:49:46.537Z,-3.32
2024-01-17T00:52:13.299Z,-3.84
2024-01-17T00:54:39.955Z,-2.19
2024-01-17T00:57:06.627Z,-2.73
2024-01-17T00:59:33.394Z,-2.00
2024-01-17T01:02:00.084Z,-1.82
2024-01-17T01:04:28.049Z,-1.74
2024-01-17T01:06:54.656Z,-1.73
2024-01-17T01:09:21.564Z,-1.71
2024-01-17T01:11:48.272Z,-1.71
2024-01-17T01:14:15.016Z,-1.70
2024-01-17T01:16:42.461Z,-1.82
2024-01-17T01:19:09.242Z,-1.75
2024-01-17T01:21:37.257Z,-1.67
2024-01-17T01:24:04.870Z,-1.86
2024-01-17T01:26:31.542Z,-1.73
2024-01-17T01:28:58.193Z,-1.68
2024-01-17T01:31:24.878Z,-1.64
2024-01-17T01:33:51.612Z,-1.88
2024-01-17T01:36:18.268Z,-1.70
2024-01-17T01:38:46.229Z,-3.51
2024-01-17T01:41:12.879Z,-2.08
2024-01-17T01:43:39.498Z,-4.17
2024-01-17T01:46:16.140Z,-2.88
2024-01-17T01:48:44.255Z,-2.06
2024-01-17T01:51:12.919Z,-1.88
2024-01-17T01:53:42.372Z,-2.06
2024-01-17T01:56:12.189Z,-1.78
2024-01-17T01:58:40.868Z,-1.77
2024-01-17T02:01:08.298Z,-1.75
2024-01-17T02:03:35.766Z,-3.41
2024-01-17T02:06:03.686Z,-2.10
2024-01-17T02:08:30.429Z,-1.78
2024-01-17T02:10:58.109Z,-1.73
2024-01-17T02:13:26.604Z,-1.72
2024-01-17T02:15:53.493Z,-1.70
2024-01-17T02:18:20.377Z,-2.14
2024-01-17T02:20:47.366Z,-3.15
2024-01-17T02:23:23.902Z,-2.41
2024-01-17T02:25:52.094Z,-2.87
2024-01-17T02:28:18.717Z,-2.17
2024-01-17T02:30:45.998Z,-2.28
2024-01-17T02:33:14.055Z,-1.93
2024-01-17T02:35:41.140Z,-1.96
2024-01-17T02:38:07.897Z,-1.80
2024-01-17T02:40:34.600Z,-2.06
2024-01-17T02:43:02.743Z,-1.83
2024-01-17T02:45:29.416Z,-1.77
2024-01-17T02:47:56.051Z,-1.73
2024-01-17T02:50:22.938Z,-1.72
2024-01-17T02:52:49.638Z,-3.27
2024-01-17T02:55:19.302Z,-2.28
2024-01-17T02:57:46.515Z,-2.96
2024-01-17T03:00:15.178Z,-2.15
2024-01-17T03:02:41.933Z,-1.89
2024-01-17T03:05:09.564Z,-1.81
2024-01-17T03:07:36.314Z,-1.77
2024-01-17T03:10:03.281Z,-2.43
2024-01-17T03:12:30.030Z,-2.11
2024-01-17T03:14:56.689Z,-1.88
2024-01-17T03:17:24.907Z,-1.78
2024-01-17T03:19:51.696Z,-1.73
2024-01-17T03:22:18.521Z,-1.69
2024-01-17T03:24:46.914Z,-1.70
2024-01-17T03:27:14.509Z,-1.94
2024-01-17T03:29:41.405Z,-1.86
2024-01-17T03:32:08.757Z,-1.73
2024-01-17T03:34:36.814Z,-2.33
2024-01-17T03:37:06.158Z,-2.37
2024-01-17T03:39:35.064Z,-1.86
2024-01-17T03:42:01.987Z,-1.76
2024-01-17T03:44:28.907Z,-1.73
2024-01-17T03:46:55.664Z,-1.69
2024-01-17T03:49:22.319Z,-1.68
2024-01-17T03:51:50.441Z,-1.67
2024-01-17T03:54:17.176Z,-1.67
2024-01-17T03:56:44.226Z,-2.95
2024-01-17T03:59:10.918Z,-2.29
2024-01-17T04:01:43.632Z,-1.93
2024-01-17T04:04:10.525Z,-1.90
2024-01-17T04:06:37.256Z,-1.75
2024-01-17T04:09:05.403Z,-1.94
2024-01-17T04:11:32.062Z,-3.11
2024-01-17T04:13:58.798Z,-2.37
2024-01-17T04:16:25.495Z,-2.19
2024-01-17T04:18:52.273Z,-2.94
2024-01-17T04:21:19.787Z,-1.83
2024-01-17T04:23:48.227Z,-1.76
2024-01-17T04:26:24.594Z,-2.73
2024-01-17T04:28:52.071Z,-1.99
2024-01-17T04:31:26.106Z,-1.76
2024-01-17T04:33:53.789Z,-2.21
2024-01-17T04:36:21.361Z,-1.73
2024-01-17T04:38:48.705Z,-2.04
2024-01-17T04:41:16.441Z,-2.00
2024-01-17T04:43:45.527Z,-1.92
2024-01-17T04:46:13.720Z,-1.99
2024-01-17T04:48:40.772Z,-1.85
2024-01-17T04:51:09.056Z,-1.95
2024-01-17T04:53:38.644Z,-2.44
2024-01-17T04:56:08.979Z,-1.78
2024-01-17T04:58:35.772Z,-1.89
2024-01-17T05:01:04.156Z,-1.70
2024-01-17T05:03:32.450Z,-2.06
2024-01-17T05:06:00.646Z,-2.45
2024-01-17T05:08:27.491Z,-2.67
2024-01-17T05:10:54.406Z,-2.80
2024-01-17T05:13:21.431Z,-2.35
2024-01-17T05:15:48.149Z,-2.22
2024-01-17T05:18:16.316Z,-2.08
2024-01-17T05:20:43.131Z,-2.07
2024-01-17T05:23:09.755Z,-1.73
2024-01-17T05:25:36.434Z,-1.68
2024-01-17T05:28:03.407Z,-1.68
2024-01-17T05:30:30.142Z,-1.66
2024-01-17T05:32:56.993Z,-1.65
2024-01-17T05:35:25.358Z,-1.88
2024-01-17T05:37:52.401Z,-1.78
2024-01-17T05:40:19.249Z,-1.70
2024-01-17T05:42:46.516Z,-1.67
2024-01-17T05:45:13.512Z,-1.72
2024-01-17T05:47:41.853Z,-1.68
2024-01-17T05:50:10.374Z,-1.60
2024-01-17T05:52:40.656Z,-1.78
2024-01-17T05:55:08.489Z,-1.63
2024-01-17T05:57:35.328Z,-1.61
2024-01-17T06:00:02.514Z,-1.57
2024-01-17T06:02:29.295Z,-1.57
2024-01-17T06:04:56.175Z,-1.67
2024-01-17T06:07:22.961Z,-1.63
2024-01-17T06:09:50.960Z,-1.60
2024-01-17T06:12:17.562Z,-1.56
2024-01-17T06:14:44.260Z,-1.58
2024-01-17T06:17:10.978Z,-1.57
2024-01-17T06:19:37.661Z,-1.53
2024-01-17T06:22:04.567Z,-1.52
2024-01-17T06:24:31.211Z,-1.56
2024-01-17T06:27:00.755Z,-1.57
2024-01-17T06:29:31.561Z,-1.96
2024-01-17T06:31:58.654Z,-2.11
2024-01-17T06:34:25.354Z,-1.80
2024-01-17T06:36:52.095Z,-2.40
2024-01-17T06:39:18.806Z,-1.87
2024-01-17T06:41:45.776Z,-2.27
2024-01-17T06:44:13.857Z,-1.76
2024-01-17T06:46:40.497Z,-1.72
2024-01-17T06:49:07.254Z,-1.59
2024-01-17T06:51:34.006Z,-1.56
2024-01-17T06:54:00.746Z,-1.51
2024-01-17T06:56:27.929Z,-1.52
2024-01-17T06:58:54.621Z,-1.52
2024-01-17T07:01:22.775Z,-1.51
2024-01-17T07:03:49.577Z,-1.90
2024-01-17T07:06:16.455Z,-1.55
2024-01-17T07:08:43.351Z,-1.56
2024-01-17T07:11:11.915Z,-1.51
2024-01-17T07:13:41.490Z,-1.52
2024-01-17T07:16:08.911Z,-1.49
2024-01-17T07:18:37.056Z,-1.46
2024-01-17T07:21:09.811Z,-1.47
2024-01-17T07:23:38.618Z,-1.65
2024-01-17T07:26:05.474Z,-2.22
2024-01-17T07:28:32.162Z,-1.75
2024-01-17T07:30:58.823Z,-1.52
2024-01-17T07:33:25.672Z,-1.56
2024-01-17T07:35:53.783Z,-1.74
2024-01-17T07:38:20.436Z,-1.86
2024-01-17T07:40:47.429Z,-1.60
2024-01-17T07:43:14.166Z,-1.89
2024-01-17T07:45:40.801Z,-1.61
2024-01-17T07:48:07.656Z,-1.60
2024-01-17T07:50:34.406Z,-1.58
2024-01-17T07:53:02.475Z,-1.52
2024-01-17T07:55:29.758Z,-1.45
2024-01-17T07:57:56.454Z,-1.00
2024-01-17T08:00:23.577Z,-1.08
2024-01-17T08:02:50.878Z,-0.92
2024-01-17T08:05:18.091Z,-1.08
2024-01-17T08:07:44.733Z,-0.91
2024-01-17T08:10:12.885Z,-1.23
2024-01-17T08:12:39.594Z,-1.11
2024-01-17T08:15:09.403Z,-1.37
2024-01-17T08:17:36.452Z,-1.21
2024-01-17T08:20:04.694Z,-0.35
2024-01-17T08:22:31.341Z,-0.85
2024-01-17T08:24:57.999Z,-0.14
2024-01-17T08:27:26.013Z,-1.11
2024-01-17T08:29:52.750Z,-0.77
2024-01-17T08:32:19.388Z,0.21
2024-01-17T08:34:46.074Z,-1.02
2024-01-17T08:37:12.944Z,-0.36
2024-01-17T08:39:39.556Z,-0.44
2024-01-17T08:42:06.377Z,0.30
2024-01-17T08:44:34.380Z,-0.63
2024-01-17T08:47:01.057Z,0.60
2024-01-17T08:49:29.458Z,-0.62
2024-01-17T08:51:56.080Z,-1.08
2024-01-17T08:54:23.380Z,-0.91
2024-01-17T08:56:50.234Z,-1.10
2024-01-17T08:59:16.915Z,0.60
2024-01-17T09:01:44.878Z,0.75
2024-01-17T09:04:12.126Z,-0.88
2024-01-17T09:06:38.887Z,-0.88
2024-01-17T09:09:05.767Z,-1.01
2024-01-17T09:11:33.256Z,0.12
2024-01-17T09:14:00.066Z,-0.65
2024-01-17T09:16:26.679Z,0.44
2024-01-17T09:18:54.834Z,0.10
2024-01-17T09:21:22.423Z,-0.99
2024-01-17T09:23:49.300Z,-0.79
2024-01-17T09:26:17.541Z,-0.48
2024-01-17T09:28:44.325Z,-0.92
2024-01-17T09:31:11.051Z,-0.53
2024-01-17T09:33:37.857Z,0.95
2024-01-17T09:36:07.366Z,-0.21
2024-01-17T09:38:34.073Z,-0.92
2024-01-17T09:41:00.776Z,-0.88
2024-01-17T09:43:27.961Z,-0.78
2024-01-17T09:45:56.310Z,-0.33
2024-01-17T09:48:26.451Z,0.83
2024-01-17T09:50:53.401Z,1.18
2024-01-17T09:53:33.925Z,0.26
2024-01-17T09:56:02.973Z,-0.53
2024-01-17T09:58:33.770Z,-0.83
2024-01-17T10:01:02.524Z,1.00
2024-01-17T10:03:30.304Z,1.42
2024-01-17T10:05:58.249Z,1.41
2024-01-17T10:08:26.516Z,-0.50
2024-01-17T10:10:53.155Z,-0.77
2024-01-17T10:13:19.868Z,0.79
2024-01-17T10:15:46.928Z,1.08
2024-01-17T10:18:13.886Z,0.44
2024-01-17T10:20:40.884Z,1.31
2024-01-17T10:23:08.431Z,1.18
2024-01-17T10:25:40.373Z,-0.63
2024-01-17T10:28:10.317Z,-0.21
2024-01-17T10:30:38.005Z,-0.69
2024-01-17T10:33:05.823Z,-0.69
2024-01-17T10:35:32.555Z,1.31
2024-01-17T10:37:59.317Z,0.34
2024-01-17T10:40:26.685Z,-0.37
2024-01-17T10:43:06.558Z,0.59
2024-01-17T10:45:36.217Z,-0.55
2024-01-17T10:48:02.912Z,1.25
2024-01-17T10:50:30.590Z,0.76
2024-01-17T10:53:02.346Z,-0.50
2024-01-17T10:55:30.731Z,-0.54
2024-01-17T10:58:02.088Z,0.26
2024-01-17T11:00:32.709Z,1.39
2024-01-17T11:03:01.148Z,0.02
2024-01-17T11:05:31.575Z,1.16
2024-01-17T11:08:00.561Z,-0.14
2024-01-17T11:10:29.260Z,1.21
2024-01-17T11:12:56.681Z,1.77
2024-01-17T11:15:26.038Z,0.80
2024-01-17T11:17:55.416Z,-0.11
2024-01-17T11:20:22.354Z,-0.13
2024-01-17T11:22:50.555Z,1.53
2024-01-17T11:25:24.488Z,1.49
2024-01-17T11:28:00.251Z,0.73
2024-01-17T11:30:37.728Z,0.23
2024-01-17T11:33:09.660Z,1.50
2024-01-17T11:35:42.628Z,1.89
2024-01-17T11:38:28.528Z,1.74
2024-01-17T11:40:57.463Z,-0.02
2024-01-17T11:43:27.449Z,1.54
2024-01-17T11:45:54.777Z,1.17
2024-01-17T11:48:25.338Z,2.01
2024-01-17T11:51:00.201Z,1.15
2024-01-17T11:53:27.983Z,0.86
2024-01-17T11:55:56.210Z,1.52
2024-01-17T11:58:23.306Z,1.81
2024-01-17T12:00:52.683Z,0.52
2024-01-17T12:03:32.755Z,0.19
2024-01-17T12:06:01.451Z,2.58
2024-01-17T12:08:28.841Z,1.92
2024-01-17T12:10:56.010Z,2.75
2024-01-17T12:13:23.289Z,2.51
2024-01-17T12:15:52.971Z,0.67
2024-01-17T12:18:21.290Z,2.08
2024-01-17T12:20:50.917Z,1.91
2024-01-17T12:23:19.439Z,1.69
2024-01-17T12:25:46.568Z,2.28
2024-01-17T12:28:18.596Z,1.62
2024-01-17T12:30:56.115Z,0.56
2024-01-17T12:33:25.940Z,1.43
2024-01-17T12:35:55.812Z,2.11
2024-01-17T12:38:22.554Z,1.57
2024-01-17T12:40:50.353Z,0.95
2024-01-17T12:43:18.568Z,2.30
2024-01-17T12:45:46.589Z,1.10
2024-01-17T12:48:13.578Z,0.09
2024-01-17T12:50:44.823Z,2.16
2024-01-17T12:53:13.545Z,1.56
2024-01-17T12:55:43.477Z,2.16
2024-01-17T12:58:12.380Z,1.18
2024-01-17T13:00:39.935Z,0.62
2024-01-17T13:03:08.109Z,0.28
2024-01-17T13:05:35.916Z,1.97
2024-01-17T13:08:10.867Z,2.13
2024-01-17T13:10:39.406Z,1.53
2024-01-17T13:13:08.917Z,2.66
2024-01-17T13:15:36.839Z,0.68
2024-01-17T13:18:04.696Z,0.50
2024-01-17T13:20:31.634Z,2.12
2024-01-17T13:22:58.650Z,0.60
2024-01-17T13:25:25.938Z,0.33
2024-01-17T13:27:59.297Z,2.01
2024-01-17T13:30:26.658Z,1.34
2024-01-17T13:32:53.645Z,0.45
2024-01-17T13:35:20.331Z,2.29
2024-01-17T13:37:47.453Z,1.18
2024-01-17T13:40:14.398Z,1.00
2024-01-17T13:42:41.569Z,1.13
2024-01-17T13:45:12.360Z,1.29
2024-01-17T13:47:41.478Z,1.66
2024-01-17T13:50:17.728Z,1.18
2024-01-17T13:52:51.513Z,0.60
2024-01-17T13:55:19.383Z,1.67
2024-01-17T13:57:47.233Z,0.80
2024-01-17T14:00:16.629Z,1.98
2024-01-17T14:02:43.976Z,2.27
2024-01-17T14:05:11.352Z,0.90
2024-01-17T14:07:39.018Z,1.66
2024-01-17T14:10:08.800Z,0.80
2024-01-17T14:12:35.282Z,1.83
2024-01-17T14:15:02.103Z,0.45
2024-01-17T14:17:30.200Z,0.38
2024-01-17T14:19:58.757Z,0.35
2024-01-17T14:22:25.447Z,1.93
2024-01-17T14:24:53.059Z,1.19
2024-01-17T14:27:20.350Z,1.68
2024-01-17T14:29:49.556Z,0.60
2024-01-17T14:32:16.262Z,1.21
2024-01-17T14:34:44.911Z,1.34
2024-01-17T14:37:12.146Z,1.73
2024-01-17T14:39:40.146Z,1.16
2024-01-17T14:42:06.987Z,1.27
2024-01-17T14:44:33.798Z,0.94
2024-01-17T14:47:00.410Z,1.78
2024-01-17T14:49:27.080Z,1.78
2024-01-17T14:51:55.063Z,0.66
2024-01-17T14:54:21.768Z,1.57
2024-01-17T14:56:49.282Z,2.05
2024-01-17T14:59:16.043Z,0.53
2024-01-17T15:01:46.047Z,0.59
2024-01-17T15:04:12.700Z,1.70
2024-01-17T15:06:39.658Z,0.61
2024-01-17T15:09:13.559Z,1.24
2024-01-17T15:11:41.813Z,0.51
2024-01-17T15:14:08.532Z,0.44
2024-01-17T15:16:35.139Z,1.06
2024-01-17T15:19:01.886Z,1.97
2024-01-17T15:21:28.588Z,1.36
2024-01-17T15:23:55.446Z,0.67
2024-01-17T15:26:24.831Z,0.54
2024-01-17T15:28:51.465Z,2.00
2024-01-17T15:31:18.156Z,2.07
2024-01-17T15:33:44.942Z,0.61
2024-01-17T15:36:11.949Z,0.93
2024-01-17T15:38:45.320Z,1.31
2024-01-17T15:41:12.101Z,0.77
2024-01-17T15:43:40.126Z,0.67
2024-01-17T15:46:07.237Z,1.02
2024-01-17T15:48:35.706Z,1.38
2024-01-17T15:51:03.243Z,0.55
2024-01-17T15:53:31.158Z,0.53
2024-01-17T15:55:57.802Z,0.91
2024-01-17T15:58:25.497Z,0.52
2024-01-17T16:00:53.625Z,0.52
2024-01-17T16:03:21.556Z,1.19
2024-01-17T16:05:48.876Z,1.44
2024-01-17T16:08:15.823Z,0.66
2024-01-17T16:10:42.930Z,1.48
2024-01-17T16:13:11.313Z,1.45
2024-01-17T16:15:37.967Z,0.94
2024-01-17T16:18:07.187Z,1.58
2024-01-17T16:20:33.960Z,0.71
2024-01-17T16:23:01.383Z,0.55
2024-01-17T16:25:28.076Z,0.69
2024-01-17T16:27:56.039Z,0.72
2024-01-17T16:30:24.663Z,1.21
2024-01-17T16:32:52.203Z,0.57
2024-01-17T16:35:20.413Z,1.28
2024-01-17T16:37:47.058Z,1.40
2024-01-17T16:40:16.468Z,0.62
2024-01-17T16:42:43.694Z,0.77
2024-01-17T16:45:11.826Z,1.37
2024-01-17T16:47:40.632Z,0.66
2024-01-17T16:50:07.792Z,0.59
2024-01-17T16:52:35.765Z,0.77
2024-01-17T16:55:03.213Z,1.24
2024-01-17T16:57:29.888Z,0.62
2024-01-17T16:59:56.817Z,1.31
2024-01-17T17:02:23.976Z,0.63
2024-01-17T17:04:50.747Z,0.77
2024-01-17T17:07:17.395Z,1.04
2024-01-17T17:09:45.388Z,1.30
2024-01-17T17:12:12.039Z,0.66
2024-01-17T17:14:38.710Z,1.24
2024-01-17T17:17:05.330Z,1.46
2024-01-17T17:19:31.956Z,0.76
2024-01-17T17:21:59.549Z,1.37
2024-01-17T17:24:26.312Z,0.89
2024-01-17T17:26:55.264Z,1.27
2024-01-17T17:29:22.503Z,0.79
2024-01-17T17:31:49.193Z,1.36
2024-01-17T17:34:16.070Z,0.98
2024-01-17T17:36:42.816Z,0.73
2024-01-17T17:39:11.626Z,0.93
2024-01-17T17:41:39.987Z,0.70
2024-01-17T17:44:08.128Z,0.66
2024-01-17T17:46:37.205Z,0.87
2024-01-17T17:49:04.117Z,1.33
2024-01-17T17:51:32.232Z,1.10
2024-01-17T17:53:59.158Z,0.76
2024-01-17T17:56:26.919Z,1.48
2024-01-17T17:58:53.711Z,0.83
2024-01-17T18:01:21.778Z,0.68
2024-01-17T18:03:48.639Z,1.73
2024-01-17T18:06:15.456Z,0.77
2024-01-17T18:08:43.810Z,1.40
2024-01-17T18:11:13.735Z,1.37
2024-01-17T18:13:46.029Z,1.26
2024-01-17T18:16:18.426Z,0.72
2024-01-17T18:18:47.043Z,0.86
2024-01-17T18:21:13.945Z,0.80
2024-01-17T18:23:40.685Z,0.93
2024-01-17T18:26:07.322Z,0.69
2024-01-17T18:28:35.743Z,0.71
2024-01-17T18:31:03.120Z,1.28
2024-01-17T18:33:30.000Z,1.16
2024-01-17T18:35:58.132Z,0.74
2024-01-17T18:38:24.813Z,0.73
2024-01-17T18:40:51.494Z,1.50
2024-01-17T18:43:21.940Z,0.82
2024-01-17T18:45:50.641Z,1.24
2024-01-17T18:48:17.310Z,1.13
2024-01-17T18:50:44.461Z,1.04
2024-01-17T18:53:12.587Z,1.26
2024-01-17T18:55:41.864Z,1.07
2024-01-17T18:58:12.372Z,0.75
2024-01-17T19:00:39.286Z,0.74
2024-01-17T19:03:07.053Z,1.04
2024-01-17T19:05:34.787Z,1.33
2024-01-17T19:08:01.627Z,0.81
2024-01-17T19:10:29.613Z,1.02
2024-01-17T19:12:56.293Z,1.15
2024-01-17T19:15:23.059Z,0.74
2024-01-17T19:17:49.872Z,0.75
2024-01-17T19:20:16.815Z,0.75
2024-01-17T19:22:43.472Z,1.32
2024-01-17T19:25:12.019Z,0.93
2024-01-17T19:27:40.250Z,0.80
2024-01-17T19:30:08.636Z,1.41
2024-01-17T19:32:35.411Z,1.24
2024-01-17T19:35:02.227Z,0.86
2024-01-17T19:37:28.879Z,0.86
2024-01-17T19:39:55.789Z,0.86
2024-01-17T19:42:22.738Z,1.12
2024-01-17T19:44:51.444Z,1.25
2024-01-17T19:47:18.276Z,0.89
2024-01-17T19:49:45.421Z,0.85
2024-01-17T19:52:13.291Z,1.16
2024-01-17T19:54:40.064Z,1.00
2024-01-17T19:57:06.749Z,1.14
2024-01-17T19:59:33.474Z,0.89
2024-01-17T20:02:01.419Z,1.05
2024-01-17T20:04:28.201Z,1.44
2024-01-17T20:06:54.872Z,1.01
2024-01-17T20:09:22.166Z,0.96
2024-01-17T20:11:49.016Z,1.15
2024-01-17T20:14:15.647Z,0.96
2024-01-17T20:16:42.288Z,0.98
2024-01-17T20:19:10.619Z,1.32
2024-01-17T20:21:37.371Z,1.27
2024-01-17T20:24:04.241Z,1.19
2024-01-17T20:26:30.876Z,1.46
2024-01-17T20:28:58.413Z,1.14
2024-01-17T20:31:25.222Z,1.06
2024-01-17T20:33:52.159Z,0.96
2024-01-17T20:36:20.461Z,0.94
2024-01-17T20:38:47.703Z,1.00
2024-01-17T20:41:17.757Z,1.35
2024-01-17T20:43:45.091Z,1.40
2024-01-17T20:46:11.819Z,1.06
2024-01-17T20:48:38.539Z,1.04
2024-01-17T20:51:05.808Z,1.00
2024-01-17T20:53:35.829Z,1.01
2024-01-17T20:56:02.469Z,1.03
2024-01-17T20:58:29.154Z,1.04
2024-01-17T21:00:55.851Z,1.03
2024-01-17T21:03:22.490Z,1.01
2024-01-17T21:05:49.171Z,1.01
2024-01-17T21:08:15.888Z,1.14
2024-01-17T21:10:46.728Z,1.03
2024-01-17T21:13:13.329Z,1.03
2024-01-17T21:15:39.918Z,1.29
2024-01-17T21:18:06.703Z,1.07
2024-01-17T21:20:36.641Z,1.09
2024-01-17T21:23:03.807Z,1.30
2024-01-17T21:25:30.648Z,1.26
2024-01-17T21:27:58.628Z,1.00
2024-01-17T21:30:25.277Z,1.20
2024-01-17T21:32:52.663Z,1.13
2024-01-17T21:35:19.441Z,1.04
2024-01-17T21:37:46.480Z,1.23
2024-01-17T21:40:13.389Z,1.09
2024-01-17T21:42:40.200Z,1.08
2024-01-17T21:45:09.765Z,1.19
2024-01-17T21:47:36.604Z,1.05
2024-01-17T21:50:04.526Z,1.25
2024-01-17T21:52:31.319Z,1.10
2024-01-17T21:54:57.948Z,1.07
2024-01-17T21:57:25.166Z,1.43
2024-01-17T21:59:53.124Z,1.29
2024-01-17T22:02:21.184Z,1.15
2024-01-17T22:04:48.047Z,1.23
2024-01-17T22:07:15.438Z,1.06
2024-01-17T22:09:42.294Z,1.11
2024-01-17T22:12:09.682Z,1.34
2024-01-17T22:14:36.347Z,1.16
2024-01-17T22:17:03.130Z,1.09
2024-01-17T22:19:31.791Z,1.52
2024-01-17T22:21:58.481Z,1.37
2024-01-17T22:24:27.473Z,1.08
2024-01-17T22:26:54.328Z,1.13
2024-01-17T22:29:20.999Z,1.11
2024-01-17T22:31:47.666Z,1.15
2024-01-17T22:34:14.630Z,1.48
2024-01-17T22:36:43.294Z,1.41
2024-01-17T22:39:11.496Z,1.26
2024-01-17T22:41:42.581Z,1.07
2024-01-17T22:44:09.245Z,1.13
2024-01-17T22:46:35.969Z,1.16
2024-01-17T22:49:02.654Z,1.31
2024-01-17T22:51:29.328Z,1.12
2024-01-17T22:53:57.354Z,1.28
2024-01-17T22:56:24.300Z,1.12
2024-01-17T22:58:50.987Z,1.13
2024-01-17T23:01:17.618Z,1.14
2024-01-17T23:03:45.441Z,1.38
2024-01-17T23:06:12.257Z,1.17
2024-01-17T23:08:38.914Z,1.16
2024-01-17T23:11:16.460Z,1.18
2024-01-17T23:13:51.136Z,1.18
2024-01-17T23:16:17.855Z,1.15
2024-01-17T23:18:44.787Z,1.20
2024-01-17T23:21:11.594Z,1.40
2024-01-17T23:23:38.604Z,1.21
2024-01-17T23:26:05.422Z,1.45
2024-01-17T23:28:33.369Z,1.17
2024-01-17T23:31:00.196Z,1.48
2024-01-17T23:33:27.045Z,1.48
2024-01-17T23:35:53.786Z,1.36
2024-01-17T23:38:20.453Z,1.16
2024-01-17T23:40:47.177Z,1.32
2024-01-17T23:43:13.804Z,1.13
2024-01-17T23:45:41.974Z,1.35
2024-01-17T23:48:09.579Z,1.17
2024-01-17T23:50:36.398Z,1.17
2024-01-17T23:53:03.286Z,1.17
2024-01-17T23:55:29.903Z,1.23
2024-01-17T23:57:56.718Z,1.20
